sensor_id;sensor_type;location;lat;lon;timestamp;P1;durP1;ratioP1;P2;durP2;ratioP2
45065;SDS011;30830;53.704;10.004;2023-09-30T00:01:54;7.55;;;2.60;;
45065;SDS011;30830;53.704;10.004;2023-09-30T00:04:19;8.90;;;2.97;;
45065;SDS011;30830;53.704;10.004;2023-09-30T00:06:45;10.57;;;3.15;;
45065;SDS011;30830;53.704;10.004;2023-09-30T00:09:11;7.65;;;2.75;;
45065;SDS011;30830;53.704;10.004;2023-09-30T00:11:36;10.15;;;3.10;;
45065;SDS011;30830;53.704;10.004;2023-09-30T00:14:02;6.38;;;2.67;;
45065;SDS011;30830;53.704;10.004;2023-09-30T00:16:29;5.70;;;2.63;;
45065;SDS011;30830;53.704;10.004;2023-09-30T00:18:55;5.72;;;2.50;;
45065;SDS011;30830;53.704;10.004;2023-09-30T00:21:23;7.75;;;2.17;;
45065;SDS011;30830;53.704;10.004;2023-09-30T00:23:49;7.68;;;2.97;;
45065;SDS011;30830;53.704;10.004;2023-09-30T00:26:14;7.70;;;3.17;;
45065;SDS011;30830;53.704;10.004;2023-09-30T00:28:40;14.10;;;3.20;;
45065;SDS011;30830;53.704;10.004;2023-09-30T00:31:09;13.95;;;3.08;;
45065;SDS011;30830;53.704;10.004;2023-09-30T00:33:35;9.60;;;2.22;;
45065;SDS011;30830;53.704;10.004;2023-09-30T00:36:05;8.80;;;2.33;;
45065;SDS011;30830;53.704;10.004;2023-09-30T00:38:32;8.73;;;2.60;;
45065;SDS011;30830;53.704;10.004;2023-09-30T00:40:57;6.97;;;2.38;;
45065;SDS011;30830;53.704;10.004;2023-09-30T00:43:23;7.40;;;2.45;;
45065;SDS011;30830;53.704;10.004;2023-09-30T00:45:48;6.15;;;2.33;;
45065;SDS011;30830;53.704;10.004;2023-09-30T00:48:21;9.55;;;2.88;;
45065;SDS011;30830;53.704;10.004;2023-09-30T00:50:47;6.85;;;2.70;;
45065;SDS011;30830;53.704;10.004;2023-09-30T00:53:13;6.60;;;2.70;;
45065;SDS011;30830;53.704;10.004;2023-09-30T00:55:39;8.63;;;3.03;;
45065;SDS011;30830;53.704;10.004;2023-09-30T00:58:04;8.05;;;2.63;;
45065;SDS011;30830;53.704;10.004;2023-09-30T01:00:31;13.43;;;2.90;;
45065;SDS011;30830;53.704;10.004;2023-09-30T01:02:57;8.07;;;2.63;;
45065;SDS011;30830;53.704;10.004;2023-09-30T01:05:24;6.22;;;2.63;;
45065;SDS011;30830;53.704;10.004;2023-09-30T01:07:50;9.68;;;2.83;;
45065;SDS011;30830;53.704;10.004;2023-09-30T01:10:15;7.53;;;3.05;;
45065;SDS011;30830;53.704;10.004;2023-09-30T01:12:41;7.28;;;2.65;;
45065;SDS011;30830;53.704;10.004;2023-09-30T01:15:07;10.40;;;2.88;;
45065;SDS011;30830;53.704;10.004;2023-09-30T01:17:34;6.75;;;2.78;;
45065;SDS011;30830;53.704;10.004;2023-09-30T01:20:00;5.93;;;2.35;;
45065;SDS011;30830;53.704;10.004;2023-09-30T01:22:26;11.43;;;3.13;;
45065;SDS011;30830;53.704;10.004;2023-09-30T01:24:53;6.47;;;2.35;;
45065;SDS011;30830;53.704;10.004;2023-09-30T01:27:18;12.20;;;3.22;;
45065;SDS011;30830;53.704;10.004;2023-09-30T01:29:44;9.77;;;3.70;;
45065;SDS011;30830;53.704;10.004;2023-09-30T01:32:10;9.57;;;2.05;;
45065;SDS011;30830;53.704;10.004;2023-09-30T01:34:36;8.07;;;2.58;;
45065;SDS011;30830;53.704;10.004;2023-09-30T01:37:02;8.02;;;2.60;;
45065;SDS011;30830;53.704;10.004;2023-09-30T01:39:28;6.10;;;2.67;;
45065;SDS011;30830;53.704;10.004;2023-09-30T01:41:55;9.25;;;3.10;;
45065;SDS011;30830;53.704;10.004;2023-09-30T01:44:20;5.55;;;2.25;;
45065;SDS011;30830;53.704;10.004;2023-09-30T01:46:46;10.52;;;2.45;;
45065;SDS011;30830;53.704;10.004;2023-09-30T01:49:11;4.35;;;2.83;;
45065;SDS011;30830;53.704;10.004;2023-09-30T01:51:37;7.13;;;2.75;;
45065;SDS011;30830;53.704;10.004;2023-09-30T01:54:03;9.50;;;2.65;;
45065;SDS011;30830;53.704;10.004;2023-09-30T01:56:30;7.30;;;2.53;;
45065;SDS011;30830;53.704;10.004;2023-09-30T01:58:55;12.38;;;2.92;;
45065;SDS011;30830;53.704;10.004;2023-09-30T02:01:21;7.60;;;2.40;;
45065;SDS011;30830;53.704;10.004;2023-09-30T02:03:47;8.25;;;2.15;;
45065;SDS011;30830;53.704;10.004;2023-09-30T02:06:12;15.13;;;4.05;;
45065;SDS011;30830;53.704;10.004;2023-09-30T02:08:38;6.57;;;2.40;;
45065;SDS011;30830;53.704;10.004;2023-09-30T02:11:04;8.60;;;2.72;;
45065;SDS011;30830;53.704;10.004;2023-09-30T02:13:32;11.35;;;2.78;;
45065;SDS011;30830;53.704;10.004;2023-09-30T02:16:00;10.38;;;3.38;;
45065;SDS011;30830;53.704;10.004;2023-09-30T02:18:26;14.88;;;3.17;;
45065;SDS011;30830;53.704;10.004;2023-09-30T02:20:52;10.02;;;2.63;;
45065;SDS011;30830;53.704;10.004;2023-09-30T02:23:18;4.65;;;2.25;;
45065;SDS011;30830;53.704;10.004;2023-09-30T02:25:44;8.10;;;2.55;;
45065;SDS011;30830;53.704;10.004;2023-09-30T02:28:09;10.48;;;3.40;;
45065;SDS011;30830;53.704;10.004;2023-09-30T02:30:35;9.25;;;2.50;;
45065;SDS011;30830;53.704;10.004;2023-09-30T02:33:01;8.23;;;2.47;;
45065;SDS011;30830;53.704;10.004;2023-09-30T02:35:28;5.30;;;2.00;;
45065;SDS011;30830;53.704;10.004;2023-09-30T02:37:53;6.32;;;2.92;;
45065;SDS011;30830;53.704;10.004;2023-09-30T02:40:19;7.07;;;1.80;;
45065;SDS011;30830;53.704;10.004;2023-09-30T02:42:46;7.80;;;2.28;;
45065;SDS011;30830;53.704;10.004;2023-09-30T02:45:12;5.55;;;1.92;;
45065;SDS011;30830;53.704;10.004;2023-09-30T02:47:39;8.90;;;2.50;;
45065;SDS011;30830;53.704;10.004;2023-09-30T02:50:06;9.20;;;2.67;;
45065;SDS011;30830;53.704;10.004;2023-09-30T02:52:33;5.68;;;2.78;;
45065;SDS011;30830;53.704;10.004;2023-09-30T02:54:59;10.63;;;2.63;;
45065;SDS011;30830;53.704;10.004;2023-09-30T02:57:25;10.43;;;2.92;;
45065;SDS011;30830;53.704;10.004;2023-09-30T02:59:52;5.85;;;2.78;;
45065;SDS011;30830;53.704;10.004;2023-09-30T03:02:19;7.03;;;2.30;;
45065;SDS011;30830;53.704;10.004;2023-09-30T03:04:46;8.65;;;2.78;;
45065;SDS011;30830;53.704;10.004;2023-09-30T03:07:13;8.65;;;2.53;;
45065;SDS011;30830;53.704;10.004;2023-09-30T03:09:38;6.30;;;2.28;;
45065;SDS011;30830;53.704;10.004;2023-09-30T03:12:04;11.90;;;2.92;;
45065;SDS011;30830;53.704;10.004;2023-09-30T03:14:30;15.90;;;3.38;;
45065;SDS011;30830;53.704;10.004;2023-09-30T03:16:57;9.77;;;2.42;;
45065;SDS011;30830;53.704;10.004;2023-09-30T03:19:23;11.68;;;3.03;;
45065;SDS011;30830;53.704;10.004;2023-09-30T03:21:49;5.10;;;2.53;;
45065;SDS011;30830;53.704;10.004;2023-09-30T03:24:15;6.95;;;2.72;;
45065;SDS011;30830;53.704;10.004;2023-09-30T03:26:41;10.38;;;2.92;;
45065;SDS011;30830;53.704;10.004;2023-09-30T03:29:07;8.07;;;3.28;;
45065;SDS011;30830;53.704;10.004;2023-09-30T03:31:34;6.20;;;2.38;;
45065;SDS011;30830;53.704;10.004;2023-09-30T03:34:00;9.60;;;2.67;;
45065;SDS011;30830;53.704;10.004;2023-09-30T03:36:26;11.77;;;3.05;;
45065;SDS011;30830;53.704;10.004;2023-09-30T03:38:55;5.03;;;2.63;;
45065;SDS011;30830;53.704;10.004;2023-09-30T03:41:24;8.38;;;2.50;;
45065;SDS011;30830;53.704;10.004;2023-09-30T03:43:49;8.30;;;3.10;;
45065;SDS011;30830;53.704;10.004;2023-09-30T03:46:15;8.43;;;3.17;;
45065;SDS011;30830;53.704;10.004;2023-09-30T03:48:41;15.48;;;3.80;;
45065;SDS011;30830;53.704;10.004;2023-09-30T03:51:11;8.00;;;3.35;;
45065;SDS011;30830;53.704;10.004;2023-09-30T03:53:43;10.82;;;2.65;;
45065;SDS011;30830;53.704;10.004;2023-09-30T03:56:10;7.03;;;2.95;;
45065;SDS011;30830;53.704;10.004;2023-09-30T03:58:39;7.93;;;2.72;;
45065;SDS011;30830;53.704;10.004;2023-09-30T04:01:06;10.77;;;3.42;;
45065;SDS011;30830;53.704;10.004;2023-09-30T04:03:32;7.60;;;2.22;;
45065;SDS011;30830;53.704;10.004;2023-09-30T04:05:59;6.43;;;2.88;;
45065;SDS011;30830;53.704;10.004;2023-09-30T04:08:26;5.38;;;2.67;;
45065;SDS011;30830;53.704;10.004;2023-09-30T04:10:51;7.55;;;2.72;;
45065;SDS011;30830;53.704;10.004;2023-09-30T04:13:17;10.43;;;3.03;;
45065;SDS011;30830;53.704;10.004;2023-09-30T04:15:44;8.07;;;2.78;;
45065;SDS011;30830;53.704;10.004;2023-09-30T04:18:11;6.57;;;2.88;;
45065;SDS011;30830;53.704;10.004;2023-09-30T04:20:37;10.43;;;3.20;;
45065;SDS011;30830;53.704;10.004;2023-09-30T04:23:04;8.90;;;3.10;;
45065;SDS011;30830;53.704;10.004;2023-09-30T04:25:31;10.88;;;3.72;;
45065;SDS011;30830;53.704;10.004;2023-09-30T04:27:57;7.28;;;3.30;;
45065;SDS011;30830;53.704;10.004;2023-09-30T04:30:23;8.30;;;2.97;;
45065;SDS011;30830;53.704;10.004;2023-09-30T04:32:48;12.77;;;3.70;;
45065;SDS011;30830;53.704;10.004;2023-09-30T04:35:14;7.95;;;3.65;;
45065;SDS011;30830;53.704;10.004;2023-09-30T04:37:40;11.77;;;3.33;;
45065;SDS011;30830;53.704;10.004;2023-09-30T04:40:06;9.80;;;3.08;;
45065;SDS011;30830;53.704;10.004;2023-09-30T04:42:40;5.45;;;3.47;;
45065;SDS011;30830;53.704;10.004;2023-09-30T04:45:06;8.60;;;2.90;;
45065;SDS011;30830;53.704;10.004;2023-09-30T04:47:32;6.20;;;2.75;;
45065;SDS011;30830;53.704;10.004;2023-09-30T04:49:58;8.32;;;3.22;;
45065;SDS011;30830;53.704;10.004;2023-09-30T04:52:24;7.03;;;2.50;;
45065;SDS011;30830;53.704;10.004;2023-09-30T04:54:52;8.52;;;3.30;;
45065;SDS011;30830;53.704;10.004;2023-09-30T04:57:18;6.82;;;2.42;;
45065;SDS011;30830;53.704;10.004;2023-09-30T04:59:45;6.55;;;2.75;;
45065;SDS011;30830;53.704;10.004;2023-09-30T05:02:11;6.88;;;2.90;;
45065;SDS011;30830;53.704;10.004;2023-09-30T05:04:39;7.78;;;3.53;;
45065;SDS011;30830;53.704;10.004;2023-09-30T05:07:06;11.77;;;3.28;;
45065;SDS011;30830;53.704;10.004;2023-09-30T05:09:31;7.65;;;3.33;;
45065;SDS011;30830;53.704;10.004;2023-09-30T05:11:57;7.95;;;2.72;;
45065;SDS011;30830;53.704;10.004;2023-09-30T05:14:22;6.18;;;2.05;;
45065;SDS011;30830;53.704;10.004;2023-09-30T05:16:48;11.32;;;3.45;;
45065;SDS011;30830;53.704;10.004;2023-09-30T05:19:13;7.57;;;2.90;;
45065;SDS011;30830;53.704;10.004;2023-09-30T05:21:39;10.00;;;3.28;;
45065;SDS011;30830;53.704;10.004;2023-09-30T05:24:04;9.65;;;3.30;;
45065;SDS011;30830;53.704;10.004;2023-09-30T05:26:30;10.25;;;3.22;;
45065;SDS011;30830;53.704;10.004;2023-09-30T05:28:57;8.55;;;3.42;;
45065;SDS011;30830;53.704;10.004;2023-09-30T05:31:24;9.65;;;3.78;;
45065;SDS011;30830;53.704;10.004;2023-09-30T05:33:50;11.75;;;2.85;;
45065;SDS011;30830;53.704;10.004;2023-09-30T05:36:15;9.55;;;3.03;;
45065;SDS011;30830;53.704;10.004;2023-09-30T05:38:41;8.30;;;3.10;;
45065;SDS011;30830;53.704;10.004;2023-09-30T05:41:07;6.10;;;2.90;;
45065;SDS011;30830;53.704;10.004;2023-09-30T05:43:32;8.15;;;3.17;;
45065;SDS011;30830;53.704;10.004;2023-09-30T05:45:58;4.95;;;2.20;;
45065;SDS011;30830;53.704;10.004;2023-09-30T05:48:24;7.38;;;3.17;;
45065;SDS011;30830;53.704;10.004;2023-09-30T05:50:49;6.47;;;2.92;;
45065;SDS011;30830;53.704;10.004;2023-09-30T05:53:15;8.27;;;3.10;;
45065;SDS011;30830;53.704;10.004;2023-09-30T05:55:41;8.20;;;2.67;;
45065;SDS011;30830;53.704;10.004;2023-09-30T05:58:09;11.95;;;3.00;;
45065;SDS011;30830;53.704;10.004;2023-09-30T06:00:35;8.63;;;2.95;;
45065;SDS011;30830;53.704;10.004;2023-09-30T06:03:00;7.53;;;3.28;;
45065;SDS011;30830;53.704;10.004;2023-09-30T06:05:26;8.70;;;2.67;;
45065;SDS011;30830;53.704;10.004;2023-09-30T06:07:55;8.00;;;2.78;;
45065;SDS011;30830;53.704;10.004;2023-09-30T06:10:21;6.80;;;2.88;;
45065;SDS011;30830;53.704;10.004;2023-09-30T06:12:47;6.70;;;3.15;;
45065;SDS011;30830;53.704;10.004;2023-09-30T06:15:14;13.43;;;3.72;;
45065;SDS011;30830;53.704;10.004;2023-09-30T06:17:41;9.38;;;3.10;;
45065;SDS011;30830;53.704;10.004;2023-09-30T06:20:07;8.38;;;3.72;;
45065;SDS011;30830;53.704;10.004;2023-09-30T06:22:35;8.18;;;3.58;;
45065;SDS011;30830;53.704;10.004;2023-09-30T06:25:00;6.47;;;2.60;;
45065;SDS011;30830;53.704;10.004;2023-09-30T06:27:28;8.50;;;2.97;;
45065;SDS011;30830;53.704;10.004;2023-09-30T06:29:54;11.18;;;3.22;;
45065;SDS011;30830;53.704;10.004;2023-09-30T06:32:20;8.55;;;2.67;;
45065;SDS011;30830;53.704;10.004;2023-09-30T06:34:46;12.55;;;3.90;;
45065;SDS011;30830;53.704;10.004;2023-09-30T06:37:11;12.90;;;3.22;;
45065;SDS011;30830;53.704;10.004;2023-09-30T06:39:37;9.43;;;3.13;;
45065;SDS011;30830;53.704;10.004;2023-09-30T06:42:02;7.57;;;3.70;;
45065;SDS011;30830;53.704;10.004;2023-09-30T06:44:28;8.07;;;2.50;;
45065;SDS011;30830;53.704;10.004;2023-09-30T06:46:56;10.60;;;2.70;;
45065;SDS011;30830;53.704;10.004;2023-09-30T06:49:21;12.82;;;4.25;;
45065;SDS011;30830;53.704;10.004;2023-09-30T06:51:47;6.70;;;2.75;;
45065;SDS011;30830;53.704;10.004;2023-09-30T06:54:12;9.52;;;2.95;;
45065;SDS011;30830;53.704;10.004;2023-09-30T06:56:38;7.90;;;3.45;;
45065;SDS011;30830;53.704;10.004;2023-09-30T06:59:03;8.13;;;3.22;;
45065;SDS011;30830;53.704;10.004;2023-09-30T07:01:29;8.52;;;3.65;;
45065;SDS011;30830;53.704;10.004;2023-09-30T07:03:54;4.53;;;2.72;;
45065;SDS011;30830;53.704;10.004;2023-09-30T07:06:26;9.30;;;3.75;;
45065;SDS011;30830;53.704;10.004;2023-09-30T07:08:52;7.15;;;3.22;;
45065;SDS011;30830;53.704;10.004;2023-09-30T07:11:28;8.02;;;3.30;;
45065;SDS011;30830;53.704;10.004;2023-09-30T07:13:54;14.57;;;3.15;;
45065;SDS011;30830;53.704;10.004;2023-09-30T07:16:20;9.63;;;3.78;;
45065;SDS011;30830;53.704;10.004;2023-09-30T07:18:46;7.93;;;3.20;;
45065;SDS011;30830;53.704;10.004;2023-09-30T07:21:11;10.30;;;3.40;;
45065;SDS011;30830;53.704;10.004;2023-09-30T07:23:38;8.02;;;2.47;;
45065;SDS011;30830;53.704;10.004;2023-09-30T07:26:03;5.00;;;2.50;;
45065;SDS011;30830;53.704;10.004;2023-09-30T07:28:29;8.52;;;2.80;;
45065;SDS011;30830;53.704;10.004;2023-09-30T07:30:55;6.95;;;2.72;;
45065;SDS011;30830;53.704;10.004;2023-09-30T07:33:20;7.07;;;2.95;;
45065;SDS011;30830;53.704;10.004;2023-09-30T07:35:46;4.45;;;2.67;;
45065;SDS011;30830;53.704;10.004;2023-09-30T07:38:12;10.63;;;3.13;;
45065;SDS011;30830;53.704;10.004;2023-09-30T07:40:38;8.05;;;3.28;;
45065;SDS011;30830;53.704;10.004;2023-09-30T07:43:03;9.65;;;3.05;;
45065;SDS011;30830;53.704;10.004;2023-09-30T07:45:29;9.68;;;3.30;;
45065;SDS011;30830;53.704;10.004;2023-09-30T07:47:54;5.28;;;2.47;;
45065;SDS011;30830;53.704;10.004;2023-09-30T07:50:20;8.95;;;2.80;;
45065;SDS011;30830;53.704;10.004;2023-09-30T07:52:45;7.07;;;2.92;;
45065;SDS011;30830;53.704;10.004;2023-09-30T07:55:11;9.57;;;2.55;;
45065;SDS011;30830;53.704;10.004;2023-09-30T07:57:39;9.77;;;2.58;;
45065;SDS011;30830;53.704;10.004;2023-09-30T08:00:06;6.90;;;2.63;;
45065;SDS011;30830;53.704;10.004;2023-09-30T08:02:34;9.27;;;2.20;;
45065;SDS011;30830;53.704;10.004;2023-09-30T08:04:59;9.45;;;3.42;;
45065;SDS011;30830;53.704;10.004;2023-09-30T08:07:26;7.72;;;2.80;;
45065;SDS011;30830;53.704;10.004;2023-09-30T08:09:52;8.27;;;2.72;;
45065;SDS011;30830;53.704;10.004;2023-09-30T08:12:17;9.60;;;2.53;;
45065;SDS011;30830;53.704;10.004;2023-09-30T08:14:43;7.95;;;2.13;;
45065;SDS011;30830;53.704;10.004;2023-09-30T08:17:11;8.70;;;2.70;;
45065;SDS011;30830;53.704;10.004;2023-09-30T08:19:37;9.52;;;2.63;;
45065;SDS011;30830;53.704;10.004;2023-09-30T08:22:02;3.45;;;1.80;;
45065;SDS011;30830;53.704;10.004;2023-09-30T08:24:28;6.25;;;2.10;;
45065;SDS011;30830;53.704;10.004;2023-09-30T08:26:54;6.60;;;2.10;;
45065;SDS011;30830;53.704;10.004;2023-09-30T08:29:21;8.88;;;2.30;;
45065;SDS011;30830;53.704;10.004;2023-09-30T08:31:47;9.15;;;2.78;;
45065;SDS011;30830;53.704;10.004;2023-09-30T08:34:14;8.82;;;2.88;;
45065;SDS011;30830;53.704;10.004;2023-09-30T08:36:40;7.30;;;2.15;;
45065;SDS011;30830;53.704;10.004;2023-09-30T08:39:06;5.95;;;2.03;;
45065;SDS011;30830;53.704;10.004;2023-09-30T08:41:32;9.60;;;1.90;;
45065;SDS011;30830;53.704;10.004;2023-09-30T08:44:02;5.25;;;1.88;;
45065;SDS011;30830;53.704;10.004;2023-09-30T08:46:32;8.98;;;1.83;;
45065;SDS011;30830;53.704;10.004;2023-09-30T08:49:03;8.55;;;1.85;;
45065;SDS011;30830;53.704;10.004;2023-09-30T08:51:29;4.13;;;1.92;;
45065;SDS011;30830;53.704;10.004;2023-09-30T08:53:56;4.22;;;1.95;;
45065;SDS011;30830;53.704;10.004;2023-09-30T08:56:28;11.38;;;2.58;;
45065;SDS011;30830;53.704;10.004;2023-09-30T08:58:58;9.43;;;2.15;;
45065;SDS011;30830;53.704;10.004;2023-09-30T09:01:26;6.57;;;1.77;;
45065;SDS011;30830;53.704;10.004;2023-09-30T09:03:52;5.82;;;1.85;;
45065;SDS011;30830;53.704;10.004;2023-09-30T09:06:19;9.68;;;2.00;;
45065;SDS011;30830;53.704;10.004;2023-09-30T09:08:48;9.00;;;2.60;;
45065;SDS011;30830;53.704;10.004;2023-09-30T09:11:15;6.93;;;1.83;;
45065;SDS011;30830;53.704;10.004;2023-09-30T09:13:51;13.77;;;2.10;;
45065;SDS011;30830;53.704;10.004;2023-09-30T09:16:22;8.77;;;2.33;;
45065;SDS011;30830;53.704;10.004;2023-09-30T09:18:49;5.72;;;2.25;;
45065;SDS011;30830;53.704;10.004;2023-09-30T09:21:15;8.07;;;1.92;;
45065;SDS011;30830;53.704;10.004;2023-09-30T09:23:47;12.35;;;2.30;;
45065;SDS011;30830;53.704;10.004;2023-09-30T09:26:31;4.10;;;1.67;;
45065;SDS011;30830;53.704;10.004;2023-09-30T09:29:00;8.30;;;2.30;;
45065;SDS011;30830;53.704;10.004;2023-09-30T09:31:31;9.00;;;2.20;;
45065;SDS011;30830;53.704;10.004;2023-09-30T09:34:01;4.50;;;2.05;;
45065;SDS011;30830;53.704;10.004;2023-09-30T09:36:41;8.35;;;2.03;;
45065;SDS011;30830;53.704;10.004;2023-09-30T09:39:11;12.55;;;2.60;;
45065;SDS011;30830;53.704;10.004;2023-09-30T09:41:54;10.50;;;2.58;;
45065;SDS011;30830;53.704;10.004;2023-09-30T09:44:22;7.57;;;2.10;;
45065;SDS011;30830;53.704;10.004;2023-09-30T09:46:52;6.28;;;2.15;;
45065;SDS011;30830;53.704;10.004;2023-09-30T09:49:18;8.23;;;1.85;;
45065;SDS011;30830;53.704;10.004;2023-09-30T09:51:48;14.05;;;2.45;;
45065;SDS011;30830;53.704;10.004;2023-09-30T09:54:15;11.90;;;2.42;;
45065;SDS011;30830;53.704;10.004;2023-09-30T09:56:44;11.30;;;2.63;;
45065;SDS011;30830;53.704;10.004;2023-09-30T09:59:13;4.90;;;1.60;;
45065;SDS011;30830;53.704;10.004;2023-09-30T10:01:42;5.53;;;2.05;;
45065;SDS011;30830;53.704;10.004;2023-09-30T10:04:10;6.13;;;1.77;;
45065;SDS011;30830;53.704;10.004;2023-09-30T10:06:36;7.28;;;2.00;;
45065;SDS011;30830;53.704;10.004;2023-09-30T10:09:06;5.22;;;1.30;;
45065;SDS011;30830;53.704;10.004;2023-09-30T10:11:35;7.38;;;2.63;;
45065;SDS011;30830;53.704;10.004;2023-09-30T10:14:01;7.38;;;1.98;;
45065;SDS011;30830;53.704;10.004;2023-09-30T10:19:12;5.85;;;1.85;;
45065;SDS011;30830;53.704;10.004;2023-09-30T10:21:39;8.20;;;1.80;;
45065;SDS011;30830;53.704;10.004;2023-09-30T10:29:46;9.07;;;2.28;;
45065;SDS011;30830;53.704;10.004;2023-09-30T10:32:13;6.30;;;2.15;;
45065;SDS011;30830;53.704;10.004;2023-09-30T10:34:39;4.95;;;1.67;;
45065;SDS011;30830;53.704;10.004;2023-09-30T10:37:23;6.60;;;1.83;;
45065;SDS011;30830;53.704;10.004;2023-09-30T10:39:53;5.00;;;1.70;;
45065;SDS011;30830;53.704;10.004;2023-09-30T10:50:52;8.85;;;2.08;;
45065;SDS011;30830;53.704;10.004;2023-09-30T10:53:20;8.30;;;1.73;;
45065;SDS011;30830;53.704;10.004;2023-09-30T10:55:46;10.30;;;1.88;;
45065;SDS011;30830;53.704;10.004;2023-09-30T10:58:19;6.32;;;1.70;;
45065;SDS011;30830;53.704;10.004;2023-09-30T11:00:54;7.97;;;1.73;;
45065;SDS011;30830;53.704;10.004;2023-09-30T11:03:20;6.97;;;1.40;;
45065;SDS011;30830;53.704;10.004;2023-09-30T11:05:52;6.65;;;1.65;;
45065;SDS011;30830;53.704;10.004;2023-09-30T11:08:18;6.18;;;1.95;;
45065;SDS011;30830;53.704;10.004;2023-09-30T11:10:49;3.38;;;1.33;;
45065;SDS011;30830;53.704;10.004;2023-09-30T11:13:19;6.35;;;1.75;;
45065;SDS011;30830;53.704;10.004;2023-09-30T11:15:45;5.53;;;1.02;;
45065;SDS011;30830;53.704;10.004;2023-09-30T11:20:41;3.75;;;1.67;;
45065;SDS011;30830;53.704;10.004;2023-09-30T11:23:08;5.45;;;1.60;;
45065;SDS011;30830;53.704;10.004;2023-09-30T11:25:37;6.60;;;1.70;;
45065;SDS011;30830;53.704;10.004;2023-09-30T11:28:17;4.45;;;1.15;;
45065;SDS011;30830;53.704;10.004;2023-09-30T11:30:56;6.90;;;1.67;;
45065;SDS011;30830;53.704;10.004;2023-09-30T11:33:25;5.78;;;1.73;;
45065;SDS011;30830;53.704;10.004;2023-09-30T11:36:01;4.43;;;1.25;;
45065;SDS011;30830;53.704;10.004;2023-09-30T11:38:29;6.70;;;2.13;;
45065;SDS011;30830;53.704;10.004;2023-09-30T11:40:58;5.47;;;1.50;;
45065;SDS011;30830;53.704;10.004;2023-09-30T11:43:30;6.03;;;1.60;;
45065;SDS011;30830;53.704;10.004;2023-09-30T11:46:09;7.65;;;1.27;;
45065;SDS011;30830;53.704;10.004;2023-09-30T11:48:55;4.03;;;1.73;;
45065;SDS011;30830;53.704;10.004;2023-09-30T11:51:22;3.13;;;1.35;;
45065;SDS011;30830;53.704;10.004;2023-09-30T11:53:49;5.45;;;0.95;;
45065;SDS011;30830;53.704;10.004;2023-09-30T11:56:23;7.30;;;2.17;;
45065;SDS011;30830;53.704;10.004;2023-09-30T11:58:54;7.50;;;1.75;;
45065;SDS011;30830;53.704;10.004;2023-09-30T12:01:20;4.72;;;1.20;;
45065;SDS011;30830;53.704;10.004;2023-09-30T12:03:47;5.00;;;1.20;;
45065;SDS011;30830;53.704;10.004;2023-09-30T12:06:13;4.53;;;1.60;;
45065;SDS011;30830;53.704;10.004;2023-09-30T12:08:41;3.72;;;1.10;;
45065;SDS011;30830;53.704;10.004;2023-09-30T12:11:07;6.10;;;1.65;;
45065;SDS011;30830;53.704;10.004;2023-09-30T12:13:32;3.03;;;1.13;;
45065;SDS011;30830;53.704;10.004;2023-09-30T12:15:58;4.68;;;1.23;;
45065;SDS011;30830;53.704;10.004;2023-09-30T12:18:23;4.60;;;1.10;;
45065;SDS011;30830;53.704;10.004;2023-09-30T12:20:50;3.10;;;1.27;;
45065;SDS011;30830;53.704;10.004;2023-09-30T12:23:17;10.35;;;1.80;;
45065;SDS011;30830;53.704;10.004;2023-09-30T12:25:43;5.72;;;1.50;;
45065;SDS011;30830;53.704;10.004;2023-09-30T12:28:09;7.30;;;1.70;;
45065;SDS011;30830;53.704;10.004;2023-09-30T12:30:35;3.58;;;1.50;;
45065;SDS011;30830;53.704;10.004;2023-09-30T12:33:00;5.28;;;1.25;;
45065;SDS011;30830;53.704;10.004;2023-09-30T12:35:29;6.70;;;1.75;;
45065;SDS011;30830;53.704;10.004;2023-09-30T12:37:54;7.05;;;1.65;;
45065;SDS011;30830;53.704;10.004;2023-09-30T12:40:20;5.80;;;1.58;;
45065;SDS011;30830;53.704;10.004;2023-09-30T12:42:45;8.32;;;1.45;;
45065;SDS011;30830;53.704;10.004;2023-09-30T12:45:12;6.50;;;1.10;;
45065;SDS011;30830;53.704;10.004;2023-09-30T12:47:38;6.82;;;1.85;;
45065;SDS011;30830;53.704;10.004;2023-09-30T12:50:04;7.35;;;1.92;;
45065;SDS011;30830;53.704;10.004;2023-09-30T12:52:30;3.40;;;1.13;;
45065;SDS011;30830;53.704;10.004;2023-09-30T12:54:57;2.35;;;1.05;;
45065;SDS011;30830;53.704;10.004;2023-09-30T12:57:23;6.07;;;1.13;;
45065;SDS011;30830;53.704;10.004;2023-09-30T12:59:48;4.97;;;1.20;;
45065;SDS011;30830;53.704;10.004;2023-09-30T13:02:15;3.58;;;1.00;;
45065;SDS011;30830;53.704;10.004;2023-09-30T13:04:43;3.75;;;1.30;;
45065;SDS011;30830;53.704;10.004;2023-09-30T13:07:09;5.60;;;1.75;;
45065;SDS011;30830;53.704;10.004;2023-09-30T13:09:36;5.90;;;1.42;;
45065;SDS011;30830;53.704;10.004;2023-09-30T13:12:03;3.72;;;1.00;;
45065;SDS011;30830;53.704;10.004;2023-09-30T13:14:29;3.42;;;0.90;;
45065;SDS011;30830;53.704;10.004;2023-09-30T13:16:54;5.22;;;1.38;;
45065;SDS011;30830;53.704;10.004;2023-09-30T13:19:20;3.53;;;1.33;;
45065;SDS011;30830;53.704;10.004;2023-09-30T13:21:49;3.60;;;1.10;;
45065;SDS011;30830;53.704;10.004;2023-09-30T13:24:15;4.70;;;1.10;;
45065;SDS011;30830;53.704;10.004;2023-09-30T13:26:41;4.30;;;1.58;;
45065;SDS011;30830;53.704;10.004;2023-09-30T13:29:07;3.03;;;1.45;;
45065;SDS011;30830;53.704;10.004;2023-09-30T13:31:35;5.97;;;1.63;;
45065;SDS011;30830;53.704;10.004;2023-09-30T13:34:04;7.93;;;1.70;;
45065;SDS011;30830;53.704;10.004;2023-09-30T13:36:33;2.78;;;1.40;;
45065;SDS011;30830;53.704;10.004;2023-09-30T13:38:59;3.75;;;1.65;;
45065;SDS011;30830;53.704;10.004;2023-09-30T13:41:25;4.90;;;2.00;;
45065;SDS011;30830;53.704;10.004;2023-09-30T13:43:51;3.78;;;1.63;;
45065;SDS011;30830;53.704;10.004;2023-09-30T13:46:17;4.15;;;1.50;;
45065;SDS011;30830;53.704;10.004;2023-09-30T13:48:43;6.60;;;1.98;;
45065;SDS011;30830;53.704;10.004;2023-09-30T13:51:09;5.28;;;1.38;;
45065;SDS011;30830;53.704;10.004;2023-09-30T13:53:35;4.60;;;1.70;;
45065;SDS011;30830;53.704;10.004;2023-09-30T13:56:01;2.88;;;0.93;;
45065;SDS011;30830;53.704;10.004;2023-09-30T13:58:28;1.75;;;1.05;;
45065;SDS011;30830;53.704;10.004;2023-09-30T14:00:54;7.00;;;1.52;;
45065;SDS011;30830;53.704;10.004;2023-09-30T14:03:21;3.35;;;1.05;;
45065;SDS011;30830;53.704;10.004;2023-09-30T14:05:49;6.70;;;1.42;;
45065;SDS011;30830;53.704;10.004;2023-09-30T14:08:15;6.45;;;1.48;;
45065;SDS011;30830;53.704;10.004;2023-09-30T14:10:41;5.35;;;1.35;;
45065;SDS011;30830;53.704;10.004;2023-09-30T14:13:08;7.53;;;1.40;;
45065;SDS011;30830;53.704;10.004;2023-09-30T14:15:34;4.82;;;1.85;;
45065;SDS011;30830;53.704;10.004;2023-09-30T14:17:59;4.35;;;1.70;;
45065;SDS011;30830;53.704;10.004;2023-09-30T14:20:27;5.18;;;1.55;;
45065;SDS011;30830;53.704;10.004;2023-09-30T14:22:52;5.65;;;1.58;;
45065;SDS011;30830;53.704;10.004;2023-09-30T14:25:20;5.78;;;1.90;;
45065;SDS011;30830;53.704;10.004;2023-09-30T14:27:46;6.10;;;1.55;;
45065;SDS011;30830;53.704;10.004;2023-09-30T14:30:13;6.00;;;2.30;;
45065;SDS011;30830;53.704;10.004;2023-09-30T14:32:39;4.25;;;1.33;;
45065;SDS011;30830;53.704;10.004;2023-09-30T14:35:05;5.00;;;1.25;;
45065;SDS011;30830;53.704;10.004;2023-09-30T14:37:31;6.10;;;1.45;;
45065;SDS011;30830;53.704;10.004;2023-09-30T14:39:57;5.30;;;1.33;;
45065;SDS011;30830;53.704;10.004;2023-09-30T14:42:23;3.20;;;1.50;;
45065;SDS011;30830;53.704;10.004;2023-09-30T14:44:48;5.40;;;1.17;;
45065;SDS011;30830;53.704;10.004;2023-09-30T14:47:14;3.63;;;1.30;;
45065;SDS011;30830;53.704;10.004;2023-09-30T14:49:40;5.70;;;1.42;;
45065;SDS011;30830;53.704;10.004;2023-09-30T14:52:06;3.95;;;1.40;;